Time;durP1;ratioP1;P1;durP2;ratioP2;P2;SDS_P1;SDS_P2;PMS_P1;PMS_P2;Temp;Humidity;BMP_temperature;BMP_pressure;BME280_temperature;BME280_humidity;BME280_pressure;Samples;Min_cycle;Max_cycle;Signal;HPM_P1;HPM_P2
2024/02/24 00:01:09;;;;;;;3.65;1.25;;;9.80;99.90;;;;;;7388797;19;20022;-77
2024/02/24 00:03:38;;;;;;;3.28;1.20;;;9.80;99.90;;;;;;7410028;19;20090;-77
2024/02/24 00:06:10;;;;;;;5.25;1.20;;;9.80;99.90;;;;;;7380628;19;20003;-77
2024/02/24 00:08:38;;;;;;;2.17;1.42;;;9.80;99.90;;;;;;7381012;19;20007;-78
2024/02/24 00:11:07;;;;;;;2.03;1.25;;;9.80;99.90;;;;;;7380924;19;20035;-78
2024/02/24 00:13:36;;;;;;;2.92;1.35;;;9.80;99.90;;;;;;7382768;19;20021;-78
2024/02/24 00:16:07;;;;;;;8.20;1.55;;;9.80;99.90;;;;;;7384973;19;20566;-77
2024/02/24 00:18:35;;;;;;;3.20;1.30;;;9.90;99.90;;;;;;7400856;19;20028;-75
2024/02/24 00:21:04;;;;;;;2.10;1.30;;;9.90;99.90;;;;;;7379280;19;20017;-75
2024/02/24 00:23:35;;;;;;;3.85;1.42;;;10.00;99.90;;;;;;7379498;19;20058;-73
2024/02/24 00:26:04;;;;;;;2.65;1.30;;;10.00;99.90;;;;;;7379830;19;20054;-73
2024/02/24 00:28:33;;;;;;;1.95;1.20;;;10.00;99.90;;;;;;7378520;19;20070;-73
2024/02/24 00:31:02;;;;;;;2.65;1.50;;;9.80;99.90;;;;;;7379746;19;20111;-74
2024/02/24 00:33:30;;;;;;;2.17;1.10;;;9.80;99.90;;;;;;7401550;19;20015;-74
2024/02/24 00:36:00;;;;;;;1.33;1.20;;;9.80;99.90;;;;;;7379246;19;20292;-74
2024/02/24 00:38:29;;;;;;;1.52;1.17;;;9.80;99.90;;;;;;7381020;19;20003;-74
2024/02/24 00:41:00;;;;;;;5.90;1.50;;;9.60;99.90;;;;;;7379930;19;20014;-75
2024/02/24 00:43:29;;;;;;;3.75;1.60;;;9.60;99.90;;;;;;7379770;19;20025;-74
2024/02/24 00:45:57;;;;;;;1.60;1.25;;;9.70;99.90;;;;;;7378773;19;20007;-74
2024/02/24 00:48:26;;;;;;;1.65;1.33;;;9.80;99.90;;;;;;7398646;19;20015;-74
2024/02/24 00:50:55;;;;;;;2.25;1.20;;;9.80;99.90;;;;;;7378066;19;20007;-73
2024/02/24 00:53:26;;;;;;;2.10;1.27;;;9.90;99.90;;;;;;7378340;19;20066;-74
2024/02/24 00:55:55;;;;;;;1.95;1.30;;;9.90;99.90;;;;;;7378476;19;20523;-74
2024/02/24 00:58:26;;;;;;;5.63;1.60;;;9.90;99.90;;;;;;7378505;19;20678;-74
2024/02/24 01:00:55;;;;;;;3.30;1.50;;;9.80;99.90;;;;;;7377770;19;20421;-73
2024/02/24 01:03:24;;;;;;;2.88;1.55;;;9.60;99.90;;;;;;7399441;19;20015;-74
2024/02/24 01:05:52;;;;;;;1.63;1.13;;;9.50;99.90;;;;;;7377080;19;20083;-74
2024/02/24 01:08:21;;;;;;;2.95;1.50;;;9.50;99.90;;;;;;7377307;19;20070;-74
2024/02/24 01:10:50;;;;;;;2.72;1.60;;;9.50;99.90;;;;;;7378578;19;20440;-74
2024/02/24 01:13:19;;;;;;;5.03;1.83;;;9.50;99.90;;;;;;7374174;19;20132;-75
2024/02/24 01:15:52;;;;;;;3.05;1.60;;;9.50;99.90;;;;;;7377337;19;20027;-73
2024/02/24 01:18:22;;;;;;;2.53;1.50;;;9.30;99.90;;;;;;7397792;19;20024;-73
2024/02/24 01:20:51;;;;;;;3.00;1.42;;;9.30;99.90;;;;;;7377046;19;20074;-74
2024/02/24 01:23:21;;;;;;;2.60;1.50;;;9.40;99.90;;;;;;7377312;19;20283;-74
2024/02/24 01:25:50;;;;;;;7.28;1.55;;;9.30;99.90;;;;;;7377793;19;20003;-74
2024/02/24 01:28:19;;;;;;;3.60;1.58;;;9.40;99.90;;;;;;7376235;19;20010;-74
2024/02/24 01:30:53;;;;;;;2.85;1.40;;;9.40;99.90;;;;;;7382246;19;20019;-74
2024/02/24 01:33:22;;;;;;;3.63;1.48;;;9.40;99.90;;;;;;7402556;19;20024;-73
2024/02/24 01:35:50;;;;;;;3.58;1.73;;;9.40;99.90;;;;;;7376670;19;20070;-74
2024/02/24 01:38:19;;;;;;;2.83;1.55;;;9.40;99.90;;;;;;7376903;19;20015;-73
2024/02/24 01:40:48;;;;;;;2.50;1.48;;;9.40;99.90;;;;;;7376626;19;20420;-74
2024/02/24 01:43:28;;;;;;;2.45;1.52;;;9.40;99.90;;;;;;7376433;19;20014;-75
2024/02/24 01:46:00;;;;;;;1.80;1.20;;;9.30;99.90;;;;;;7376807;19;20039;-76
2024/02/24 01:48:28;;;;;;;;;;;9.30;99.90;;;;;;7397001;19;20066;-74
2024/02/24 01:50:57;;;;;;;3.47;1.63;;;9.30;99.90;;;;;;7376316;19;19907;-73
2024/02/24 01:53:28;;;;;;;2.65;1.45;;;9.10;99.90;;;;;;7377030;19;20019;-73
2024/02/24 01:55:57;;;;;;;6.13;3.33;;;9.20;99.90;;;;;;7376913;19;20007;-74
2024/02/24 01:58:26;;;;;;;3.22;1.35;;;9.10;99.90;;;;;;7376946;19;20074;-74
2024/02/24 02:00:55;;;;;;;4.50;1.70;;;9.20;99.90;;;;;;7376069;19;20014;-75
2024/02/24 02:03:28;;;;;;;3.42;1.00;;;9.20;99.90;;;;;;7397719;19;20260;-73
2024/02/24 02:05:56;;;;;;;3.47;1.20;;;9.10;99.90;;;;;;7376542;19;20337;-73
2024/02/24 02:08:25;;;;;;;1.83;0.88;;;9.20;99.90;;;;;;7376694;19;20078;-73
2024/02/24 02:10:56;;;;;;;1.33;0.90;;;9.20;99.90;;;;;;7377193;19;20016;-74
2024/02/24 02:13:26;;;;;;;3.90;1.42;;;9.20;99.90;;;;;;7375897;19;20011;-73
2024/02/24 02:15:59;;;;;;;1.33;0.90;;;9.20;99.90;;;;;;7389162;19;20024;-74
2024/02/24 02:18:34;;;;;;;2.90;1.08;;;9.20;99.90;;;;;;7396688;19;20032;-75
2024/02/24 02:21:15;;;;;;;4.50;1.10;;;9.30;99.90;;;;;;7376281;19;20095;-74
2024/02/24 02:23:56;;;;;;;1.40;0.80;;;9.30;99.90;;;;;;7376204;19;20053;-74
2024/02/24 02:26:31;;;;;;;1.98;0.90;;;9.30;99.90;;;;;;7377024;19;20264;-73
2024/02/24 02:29:22;;;;;;;;;;;;;;;;;;;;;
2024/02/24 02:31:51;;;;;;;1.33;1.05;;;9.30;99.90;;;;;;7376151;19;20006;-74
2024/02/24 02:34:48;;;;;;;1.63;0.85;;;9.30;99.90;;;;;;7376020;19;20066;-74
2024/02/24 02:37:17;;;;;;;2.42;1.10;;;9.20;99.90;;;;;;7373490;19;20026;-74
2024/02/24 02:39:48;;;;;;;1.80;0.90;;;9.20;99.90;;;;;;7396787;19;20444;-73
2024/02/24 02:42:17;;;;;;;4.15;1.00;;;9.20;99.90;;;;;;7380643;19;20015;-74
2024/02/24 02:44:47;;;;;;;5.63;0.95;;;9.20;99.90;;;;;;7388914;19;20022;-75
2024/02/24 02:47:15;;;;;;;1.55;0.85;;;9.10;99.90;;;;;;7390312;19;20023;-74
2024/02/24 02:49:44;;;;;;;2.78;1.30;;;9.20;99.90;;;;;;7392332;19;20015;-74
2024/02/24 02:52:13;;;;;;;1.52;0.95;;;9.10;99.90;;;;;;7390660;19;20078;-74
2024/02/24 02:54:41;;;;;;;2.10;1.00;;;9.10;99.90;;;;;;7410755;19;20011;-74
2024/02/24 02:57:12;;;;;;;6.95;1.15;;;9.10;99.90;;;;;;7383580;19;20002;-74
2024/02/24 02:59:41;;;;;;;3.00;0.88;;;9.10;99.90;;;;;;7382280;19;20134;-74
2024/02/24 03:02:10;;;;;;;6.07;1.20;;;9.10;99.90;;;;;;7381155;19;20315;-74
2024/02/24 03:04:38;;;;;;;6.82;1.20;;;9.00;99.90;;;;;;7385481;19;19999;-75
2024/02/24 03:07:07;;;;;;;2.40;1.13;;;9.10;99.90;;;;;;7382903;19;20355;-72
2024/02/24 03:09:36;;;;;;;1.02;0.90;;;9.00;99.90;;;;;;7403635;19;20070;-73
2024/02/24 03:12:05;;;;;;;5.70;0.98;;;9.00;99.90;;;;;;7381505;19;20011;-74
2024/02/24 03:14:36;;;;;;;3.28;1.20;;;9.00;99.90;;;;;;7381707;19;20007;-73
2024/02/24 03:17:05;;;;;;;2.03;1.10;;;9.00;99.90;;;;;;7379590;19;20030;-73
2024/02/24 03:19:36;;;;;;;3.40;1.80;;;8.90;99.90;;;;;;7382552;19;20075;-73
2024/02/24 03:22:05;;;;;;;2.65;1.00;;;8.90;99.90;;;;;;7383879;19;20062;-74
2024/02/24 03:24:34;;;;;;;4.20;1.60;;;8.90;99.90;;;;;;7403043;19;20011;-74
2024/02/24 03:27:02;;;;;;;3.25;1.20;;;8.90;99.90;;;;;;7380631;19;20070;-74
2024/02/24 03:29:31;;;;;;;3.97;1.58;;;9.00;99.90;;;;;;7380305;19;20027;-74
2024/02/24 03:32:03;;;;;;;8.88;1.52;;;9.00;99.90;;;;;;7380637;19;20020;-73
2024/02/24 03:34:32;;;;;;;2.22;1.27;;;9.00;99.90;;;;;;7380639;19;20156;-74
2024/02/24 03:37:01;;;;;;;4.32;1.55;;;9.10;99.90;;;;;;7380801;19;20010;-74
2024/02/24 03:39:29;;;;;;;1.20;1.10;;;9.00;99.90;;;;;;7402060;19;20011;-74
2024/02/24 03:41:58;;;;;;;2.33;1.40;;;9.10;99.90;;;;;;7379869;19;20095;-74
2024/02/24 03:44:29;;;;;;;8.05;1.48;;;9.20;99.90;;;;;;7380278;19;20124;-74
2024/02/24 03:46:57;;;;;;;5.20;1.38;;;9.00;99.90;;;;;;7380628;19;20015;-73
2024/02/24 03:49:29;;;;;;;5.43;1.40;;;9.00;99.90;;;;;;7380479;19;20133;-74
2024/02/24 03:51:57;;;;;;;6.28;1.85;;;9.00;99.90;;;;;;7401530;19;20409;-73
2024/02/24 03:54:28;;;;;;;3.65;1.33;;;9.00;99.90;;;;;;7380002;19;20019;-73
2024/02/24 03:56:57;;;;;;;2.25;1.40;;;8.90;99.90;;;;;;7381001;19;20010;-73
2024/02/24 03:59:25;;;;;;;5.53;1.35;;;8.90;99.90;;;;;;7382661;19;20058;-74
2024/02/24 04:01:54;;;;;;;8.07;1.52;;;8.80;99.90;;;;;;7381461;19;20110;-74
2024/02/24 04:04:23;;;;;;;6.00;1.52;;;8.80;99.90;;;;;;7380977;19;20000;-73
2024/02/24 04:06:56;;;;;;;4.30;1.55;;;8.80;99.90;;;;;;7400923;19;20027;-73
2024/02/24 04:09:25;;;;;;;9.52;1.10;;;8.80;99.90;;;;;;7377538;19;20011;-74
2024/02/24 04:11:55;;;;;;;4.85;1.17;;;8.90;99.90;;;;;;7380542;19;20308;-74
2024/02/24 04:14:27;;;;;;;2.95;1.50;;;8.80;99.90;;;;;;7381236;19;20042;-74
2024/02/24 04:16:58;;;;;;;8.18;1.30;;;8.80;99.90;;;;;;7380766;19;20454;-73
2024/02/24 04:19:41;;;;;;;7.45;1.52;;;8.60;99.90;;;;;;7381273;19;20010;-74
2024/02/24 04:22:22;;;;;;;4.38;1.40;;;8.70;99.90;;;;;;7379925;19;20015;-74
2024/02/24 04:25:01;;;;;;;;;;;8.70;99.90;;;;;;7402211;19;20007;-75
2024/02/24 04:27:46;;;;;;;13.13;1.13;;;8.70;99.90;;;;;;7378987;19;19910;-75
2024/02/24 04:30:29;;;;;;;7.20;1.80;;;8.80;99.90;;;;;;7378534;19;20250;-75
2024/02/24 04:33:02;;;;;;;4.30;1.50;;;8.90;99.90;;;;;;7378741;19;20177;-74
2024/02/24 04:35:34;;;;;;;3.55;1.33;;;9.00;99.90;;;;;;7379195;19;20065;-74
2024/02/24 04:38:06;;;;;;;5.55;1.83;;;9.00;99.90;;;;;;7382739;19;20018;-73
2024/02/24 04:40:41;;;;;;;4.80;1.50;;;9.10;99.90;;;;;;7379299;19;20009;-74
2024/02/24 04:43:27;;;;;;;4.88;1.73;;;9.00;99.90;;;;;;7377449;19;20010;-74
2024/02/24 04:45:58;;;;;;;4.07;1.75;;;9.00;99.90;;;;;;7400216;19;20346;-74
2024/02/24 04:48:40;;;;;;;4.35;1.73;;;9.00;99.90;;;;;;7377381;19;20011;-74
2024/02/24 04:51:26;;;;;;;5.00;1.73;;;9.10;99.90;;;;;;7376950;19;20444;-74
2024/02/24 04:54:18;;;;;;;7.65;1.80;;;9.10;99.90;;;;;;7378696;19;20006;-73
2024/02/24 04:56:47;;;;;;;7.47;1.80;;;9.10;99.90;;;;;;7404154;19;20244;-74
2024/02/24 04:59:19;;;;;;;9.70;2.08;;;9.00;99.90;;;;;;7378903;19;20010;-76
2024/02/24 05:01:56;;;;;;;5.15;1.85;;;8.90;99.90;;;;;;7378100;19;20030;-73
2024/02/24 05:04:47;;;;;;;7.28;1.80;;;8.90;99.90;;;;;;7376407;19;20022;-74
2024/02/24 05:07:26;;;;;;;11.45;2.20;;;9.00;99.90;;;;;;7376639;19;20376;-73
2024/02/24 05:10:09;;;;;;;3.55;1.60;;;9.10;99.90;;;;;;7397946;19;20002;-74
2024/02/24 05:12:48;;;;;;;4.53;1.83;;;9.10;99.90;;;;;;7377585;19;20133;-74
2024/02/24 05:15:25;;;;;;;8.15;2.10;;;9.00;99.90;;;;;;7377078;19;20034;-74
2024/02/24 05:20:57;;;;;;;5.35;1.60;;;8.90;99.90;;;;;;7376526;19;20024;-74
2024/02/24 05:23:26;;;;;;;2.90;1.83;;;8.90;99.90;;;;;;7377738;19;20689;-74
2024/02/24 05:26:28;;;;;;;4.43;1.42;;;9.00;99.90;;;;;;7378274;19;20354;-75
2024/02/24 05:29:11;;;;;;;3.30;1.60;;;8.90;99.90;;;;;;7377019;19;20259;-74
2024/02/24 05:31:52;;;;;;;10.13;1.88;;;8.90;99.90;;;;;;7377325;19;20444;-74
2024/02/24 05:34:38;;;;;;;10.55;1.90;;;8.80;99.90;;;;;;7377334;19;20036;-73
2024/02/24 05:37:11;;;;;;;5.05;1.75;;;8.70;99.90;;;;;;7394737;19;20461;-74
2024/02/24 05:39:45;;;;;;;10.13;2.42;;;8.70;99.90;;;;;;7406350;19;19998;-74
2024/02/24 05:42:29;;;;;;;4.78;1.40;;;8.80;99.90;;;;;;7382828;19;20060;-74
2024/02/24 05:45:11;;;;;;;4.38;1.77;;;8.80;99.90;;;;;;7386500;19;20035;-74
2024/02/24 05:47:40;;;;;;;8.70;2.08;;;8.80;99.90;;;;;;7385851;19;20031;-73
2024/02/24 05:50:10;;;;;;;4.47;1.73;;;8.50;99.90;;;;;;7383793;19;19998;-74
2024/02/24 05:52:38;;;;;;;6.57;2.72;;;8.50;99.90;;;;;;7383742;19;20011;-73
2024/02/24 05:55:10;;;;;;;5.40;2.28;;;8.70;99.90;;;;;;7391406;19;20024;-74
2024/02/24 05:57:39;;;;;;;8.60;3.00;;;8.60;99.90;;;;;;7398896;19;20111;-73
2024/02/24 06:00:14;;;;;;;5.95;2.38;;;8.60;99.90;;;;;;7378575;19;20201;-73
2024/02/24 06:02:42;;;;;;;11.73;2.15;;;8.60;99.90;;;;;;7378044;19;20014;-73
2024/02/24 06:05:13;;;;;;;5.50;2.67;;;8.60;99.90;;;;;;7378602;19;20062;-73
2024/02/24 06:07:41;;;;;;;11.80;2.35;;;8.30;99.90;;;;;;7377823;19;20010;-73
2024/02/24 06:10:11;;;;;;;5.70;2.28;;;8.20;99.90;;;;;;7374412;19;20256;-73
2024/02/24 06:12:39;;;;;;;9.07;2.70;;;8.30;99.90;;;;;;7398612;19;20028;-73
2024/02/24 06:15:12;;;;;;;9.25;2.40;;;8.30;99.90;;;;;;7375400;19;20086;-74
2024/02/24 06:17:41;;;;;;;6.82;2.00;;;8.40;99.90;;;;;;7379785;19;20010;-73
2024/02/24 06:20:11;;;;;;;4.28;1.85;;;8.40;99.90;;;;;;7382981;19;20571;-73
2024/02/24 06:22:40;;;;;;;5.53;2.08;;;8.50;99.90;;;;;;7383554;19;20026;-75
2024/02/24 06:25:10;;;;;;;4.75;2.20;;;8.60;99.90;;;;;;7403481;19;20010;-74
2024/02/24 06:27:40;;;;;;;9.70;2.38;;;8.60;99.90;;;;;;7402148;19;20007;-74
2024/02/24 06:30:13;;;;;;;8.23;2.33;;;8.50;99.90;;;;;;7380496;19;20083;-74
2024/02/24 06:32:42;;;;;;;4.90;2.30;;;8.70;99.90;;;;;;7382850;19;20370;-74
2024/02/24 06:35:11;;;;;;;9.75;2.25;;;8.60;99.90;;;;;;7383040;19;20038;-73
2024/02/24 06:37:42;;;;;;;4.63;1.90;;;8.40;99.90;;;;;;7383384;19;20275;-74
2024/02/24 06:40:12;;;;;;;8.63;2.40;;;8.30;99.90;;;;;;7383341;19;20066;-74
2024/02/24 06:42:43;;;;;;;8.90;2.00;;;8.40;99.90;;;;;;7407201;19;20015;-73
2024/02/24 06:45:14;;;;;;;2.80;1.33;;;8.50;99.90;;;;;;7384782;19;20159;-73
2024/02/24 06:47:42;;;;;;;;;;;8.60;99.90;;;;;;7384507;19;20465;-74
2024/02/24 06:50:11;;;;;;;2.92;1.40;;;8.70;99.90;;;;;;7384664;19;20243;-74
2024/02/24 06:52:40;;;;;;;6.13;1.55;;;8.60;99.90;;;;;;7385674;19;20059;-74
2024/02/24 06:55:09;;;;;;;5.25;2.33;;;8.70;99.90;;;;;;7407323;19;20074;-74
2024/02/24 06:57:37;;;;;;;8.25;1.85;;;8.50;99.90;;;;;;7383787;19;20066;-74
2024/02/24 07:00:08;;;;;;;7.40;2.17;;;8.70;99.90;;;;;;7382494;19;20003;-73
2024/02/24 07:02:39;;;;;;;14.43;2.50;;;8.50;99.90;;;;;;7381962;19;20074;-74
2024/02/24 07:05:09;;;;;;;16.05;2.80;;;8.70;99.90;;;;;;7381837;19;20257;-74
2024/02/24 07:07:38;;;;;;;4.47;1.92;;;8.80;99.90;;;;;;7381427;19;20350;-74
2024/02/24 07:10:08;;;;;;;8.00;1.30;;;8.80;99.90;;;;;;7401342;19;20090;-74
2024/02/24 07:12:37;;;;;;;3.17;1.70;;;8.60;99.90;;;;;;7380897;19;20009;-73
2024/02/24 07:15:07;;;;;;;4.65;1.70;;;8.60;99.90;;;;;;7379744;19;20011;-73
2024/02/24 07:17:39;;;;;;;9.30;2.10;;;8.70;99.90;;;;;;7380221;19;20411;-74
2024/02/24 07:20:09;;;;;;;9.95;2.30;;;8.50;99.90;;;;;;7381319;19;20010;-74
2024/02/24 07:22:37;;;;;;;11.05;1.63;;;8.70;99.90;;;;;;7381420;19;20074;-75
2024/02/24 07:25:08;;;;;;;10.23;2.20;;;8.70;99.90;;;;;;7402943;19;20062;-74
2024/02/24 07:27:37;;;;;;;6.57;2.25;;;8.70;99.90;;;;;;7379984;19;20010;-74
2024/02/24 07:30:06;;;;;;;5.65;1.92;;;8.70;99.90;;;;;;7379659;19;20143;-73
2024/02/24 07:32:36;;;;;;;5.40;1.77;;;8.60;99.90;;;;;;7381195;19;20022;-74
2024/02/24 07:35:08;;;;;;;7.70;2.33;;;8.80;99.90;;;;;;7382615;19;20041;-74
2024/02/24 07:37:37;;;;;;;9.57;2.05;;;8.90;99.90;;;;;;7384452;19;20509;-74
2024/02/24 07:40:07;;;;;;;4.15;1.40;;;9.00;99.90;;;;;;7405912;19;20020;-74
2024/02/24 07:42:35;;;;;;;8.77;1.75;;;9.10;99.90;;;;;;7380547;19;20024;-74
2024/02/24 07:45:04;;;;;;;5.43;1.90;;;9.10;99.90;;;;;;7385761;19;20007;-74
2024/02/24 07:47:35;;;;;;;5.03;1.75;;;9.10;99.90;;;;;;7381338;19;20003;-73
2024/02/24 07:50:07;;;;;;;4.95;1.38;;;9.00;99.90;;;;;;7385566;19;20075;-74
2024/02/24 07:52:36;;;;;;;5.80;2.03;;;8.90;99.90;;;;;;7385692;19;20038;-74
2024/02/24 07:55:06;;;;;;;5.93;1.60;;;8.90;99.90;;;;;;7405301;19;20003;-74
2024/02/24 07:57:34;;;;;;;3.85;1.58;;;8.90;99.90;;;;;;7379734;19;20023;-74
2024/02/24 08:00:04;;;;;;;7.43;1.77;;;9.00;99.90;;;;;;7379987;19;20011;-75
2024/02/24 08:02:33;;;;;;;5.55;2.10;;;9.00;99.90;;;;;;7380530;19;20372;-74
2024/02/24 08:05:02;;;;;;;4.43;1.83;;;8.90;99.90;;;;;;7381343;19;20239;-74
2024/02/24 08:07:33;;;;;;;5.55;1.52;;;8.80;99.90;;;;;;7380493;19;20014;-74
2024/02/24 08:10:01;;;;;;;;;;;8.90;99.90;;;;;;7402361;19;20070;-73
2024/02/24 08:12:30;;;;;;;4.43;1.30;;;8.70;99.90;;;;;;7379199;19;19915;-74
2024/02/24 08:14:59;;;;;;;2.22;1.30;;;8.60;99.90;;;;;;7379756;19;20073;-74
2024/02/24 08:17:27;;;;;;;5.32;1.58;;;8.60;99.90;;;;;;7379664;19;20019;-74
2024/02/24 08:19:56;;;;;;;4.45;1.50;;;8.80;99.90;;;;;;7379721;19;20027;-74
2024/02/24 08:22:25;;;;;;;11.35;2.15;;;8.90;99.90;;;;;;7379875;19;20034;-74
2024/02/24 08:24:56;;;;;;;4.43;1.73;;;9.00;99.90;;;;;;7401405;19;20019;-74
2024/02/24 08:27:25;;;;;;;3.83;1.40;;;9.00;99.90;;;;;;7379065;19;20009;-73
2024/02/24 08:29:53;;;;;;;3.70;1.33;;;9.00;99.90;;;;;;7379501;19;20270;-73
2024/02/24 08:32:22;;;;;;;6.13;1.95;;;9.00;99.90;;;;;;7382671;19;20006;-72
2024/02/24 08:34:51;;;;;;;3.85;1.60;;;9.20;99.90;;;;;;7382687;19;20054;-74
2024/02/24 08:37:19;;;;;;;4.15;1.65;;;9.20;99.90;;;;;;7379979;19;20075;-73
2024/02/24 08:39:48;;;;;;;5.05;1.48;;;9.00;99.90;;;;;;7402700;19;20066;-73
2024/02/24 08:42:19;;;;;;;7.07;2.17;;;9.00;99.90;;;;;;7393979;19;20006;-73
2024/02/24 08:44:48;;;;;;;2.00;1.58;;;9.10;99.90;;;;;;7393180;19;20002;-74
2024/02/24 08:47:16;;;;;;;5.55;1.60;;;9.20;99.90;;;;;;7393628;19;20003;-74
2024/02/24 08:49:45;;;;;;;4.72;1.73;;;9.20;99.90;;;;;;7391220;19;20006;-74
2024/02/24 08:52:14;;;;;;;3.97;1.73;;;9.20;99.90;;;;;;7412205;19;20357;-74
2024/02/24 08:54:45;;;;;;;1.80;1.30;;;9.30;99.90;;;;;;7391679;19;20002;-74
2024/02/24 08:57:13;;;;;;;6.55;1.75;;;9.40;99.90;;;;;;7385544;19;20050;-73
2024/02/24 08:59:46;;;;;;;2.10;1.40;;;9.60;99.90;;;;;;7379696;19;20007;-75
2024/02/24 09:02:14;;;;;;;6.60;2.10;;;9.50;99.90;;;;;;7379102;19;20003;-73
2024/02/24 09:04:43;;;;;;;5.72;1.95;;;9.40;99.90;;;;;;7379204;19;20058;-73
2024/02/24 09:07:13;;;;;;;8.60;1.98;;;9.40;99.90;;;;;;7400409;19;20006;-74
2024/02/24 09:09:44;;;;;;;5.33;1.90;;;9.50;99.90;;;;;;7377851;19;20369;-74
2024/02/24 09:12:13;;;;;;;5.23;1.93;;;9.30;99.90;;;;;;7377269;19;20017;-74
2024/02/24 09:14:45;;;;;;;5.60;1.70;;;9.30;99.90;;;;;;7378267;19;20027;-75
2024/02/24 09:17:14;;;;;;;5.13;1.58;;;9.40;99.90;;;;;;7378098;19;20023;-76
2024/02/24 09:19:45;;;;;;;8.32;2.75;;;9.30;99.90;;;;;;7378353;19;20087;-76
2024/02/24 09:22:14;;;;;;;10.70;2.08;;;9.30;99.90;;;;;;7402098;19;20010;-74
2024/02/24 09:24:42;;;;;;;12.23;3.63;;;9.30;99.90;;;;;;7384092;19;20010;-75
2024/02/24 09:27:11;;;;;;;7.65;3.25;;;9.10;99.90;;;;;;7384567;19;20068;-76
2024/02/24 09:29:40;;;;;;;11.27;3.83;;;9.10;99.90;;;;;;7381397;19;20002;-75
2024/02/24 09:32:12;;;;;;;6.43;2.03;;;9.00;99.90;;;;;;7379259;19;20062;-75
2024/02/24 09:34:41;;;;;;;5.63;2.40;;;8.90;99.90;;;;;;7380750;19;20007;-76
2024/02/24 09:37:10;;;;;;;3.83;1.90;;;9.10;99.90;;;;;;7405608;19;20417;-77
2024/02/24 09:39:42;;;;;;;8.32;2.08;;;9.20;99.90;;;;;;7388515;19;20022;-77
2024/02/24 09:42:11;;;;;;;6.53;2.00;;;9.20;99.90;;;;;;7353230;19;20020;-77
2024/02/24 09:44:41;;;;;;;5.60;2.15;;;9.40;99.90;;;;;;7384989;19;20003;-78
2024/02/24 09:47:15;;;;;;;9.50;2.05;;;9.50;99.90;;;;;;7384245;19;20078;-78
2024/02/24 09:49:45;;;;;;;7.68;2.13;;;9.70;99.90;;;;;;7380866;19;20015;-78
2024/02/24 09:52:16;;;;;;;3.53;1.55;;;9.80;99.90;;;;;;7409853;19;19999;-78
2024/02/24 09:54:44;;;;;;;7.00;1.92;;;9.80;99.90;;;;;;7393291;19;20011;-78
2024/02/24 09:57:18;;;;;;;10.82;2.15;;;9.60;99.90;;;;;;7388098;19;20010;-78
2024/02/24 09:59:47;;;;;;;4.82;1.85;;;9.70;99.90;;;;;;7393387;19;20006;-79
2024/02/24 10:02:19;;;;;;;13.98;2.72;;;9.90;99.90;;;;;;7387463;19;20075;-78
2024/02/24 10:04:53;;;;;;;13.38;2.08;;;10.00;99.90;;;;;;7387771;19;20386;-78
2024/02/24 10:07:22;;;;;;;6.10;2.00;;;9.90;99.90;;;;;;7392123;19;20014;-77
2024/02/24 10:09:50;;;;;;;6.75;1.60;;;9.80;99.90;;;;;;7410580;19;20031;-80
2024/02/24 10:12:19;;;;;;;5.53;1.55;;;9.90;99.90;;;;;;7388755;19;20024;-78
2024/02/24 10:14:48;;;;;;;16.80;2.65;;;9.70;99.90;;;;;;7388498;19;20302;-79
2024/02/24 10:17:19;;;;;;;5.53;2.08;;;9.80;99.90;;;;;;7388905;19;20010;-77
2024/02/24 10:19:48;;;;;;;20.30;5.53;;;9.60;99.90;;;;;;7415858;19;20019;-75
2024/02/24 10:22:19;;;;;;;20.35;6.78;;;9.50;99.90;;;;;;7315352;19;20002;-75
2024/02/24 10:24:48;;;;;;;12.63;4.85;;;9.60;99.90;;;;;;7412114;19;20354;-76
2024/02/24 10:27:19;;;;;;;8.32;2.45;;;9.60;99.90;;;;;;7386301;19;20020;-76
2024/02/24 10:29:53;;;;;;;9.10;1.83;;;9.80;99.90;;;;;;7389026;19;20003;-78
2024/02/24 10:32:25;;;;;;;10.02;2.78;;;9.90;99.90;;;;;;7390802;19;20014;-78
2024/02/24 10:34:56;;;;;;;11.90;3.95;;;10.10;99.90;;;;;;7394749;19;20006;-79
2024/02/24 10:37:26;;;;;;;5.73;2.20;;;10.10;99.90;;;;;;7393849;19;20398;-78
2024/02/24 10:39:57;;;;;;;10.15;2.50;;;10.10;99.90;;;;;;7417995;19;20027;-78
2024/02/24 10:42:28;;;;;;;5.28;1.90;;;10.20;99.90;;;;;;7389635;19;20024;-80
2024/02/24 10:44:57;;;;;;;6.50;1.83;;;10.30;99.90;;;;;;7389700;19;20339;-78
2024/02/24 10:47:28;;;;;;;9.60;1.65;;;10.10;99.90;;;;;;7388871;19;20398;-76
2024/02/24 10:49:57;;;;;;;7.45;1.90;;;10.20;99.90;;;;;;7384870;19;20601;-77
2024/02/24 10:52:26;;;;;;;4.47;1.42;;;10.30;99.90;;;;;;7386041;19;20422;-77
2024/02/24 10:54:56;;;;;;;3.25;1.67;;;10.40;99.90;;;;;;7410798;19;20003;-77
2024/02/24 10:57:25;;;;;;;10.70;2.28;;;10.50;99.90;;;;;;7387342;19;20011;-76
2024/02/24 10:59:55;;;;;;;7.78;2.40;;;10.50;99.90;;;;;;7386860;19;19999;-75
2024/02/24 11:02:31;;;;;;;11.77;2.75;;;10.60;99.90;;;;;;7382447;19;20310;-75
2024/02/24 11:05:04;;;;;;;2.85;1.67;;;10.60;99.90;;;;;;7384155;19;20030;-74
2024/02/24 11:07:35;;;;;;;7.57;1.90;;;10.60;99.90;;;;;;7384778;19;20011;-73
2024/02/24 11:10:05;;;;;;;10.60;2.60;;;10.60;99.90;;;;;;7405085;19;20063;-74
2024/02/24 11:12:33;;;;;;;7.70;2.20;;;10.60;99.90;;;;;;7383183;19;20015;-73
2024/02/24 11:15:02;;;;;;;7.50;1.88;;;10.70;99.90;;;;;;7384831;19;20373;-74
2024/02/24 11:17:56;;;;;;;8.55;2.60;;;10.60;99.90;;;;;;7385738;19;20083;-74
2024/02/24 11:20:55;;;;;;;3.80;1.67;;;10.70;99.90;;;;;;7385268;19;19999;-74
2024/02/24 11:23:25;;;;;;;5.07;2.22;;;10.70;99.90;;;;;;7385229;19;20003;-74
2024/02/24 11:26:23;;;;;;;5.40;2.20;;;10.70;99.90;;;;;;7386070;19;20025;-75
2024/02/24 11:29:03;;;;;;;5.68;2.20;;;10.80;99.90;;;;;;7384567;19;20107;-74
2024/02/24 11:31:35;;;;;;;1.98;1.58;;;10.80;99.90;;;;;;7389198;19;20019;-74
2024/02/24 11:34:11;;;;;;;5.07;1.83;;;11.00;99.90;;;;;;7408542;19;20010;-75
2024/02/24 11:36:41;;;;;;;2.88;1.75;;;11.10;99.90;;;;;;7382772;19;20003;-73
2024/02/24 11:39:11;;;;;;;8.13;2.33;;;11.10;99.90;;;;;;7384177;19;20003;-76
2024/02/24 11:41:41;;;;;;;7.85;2.33;;;11.30;99.90;;;;;;7384719;19;20295;-75
2024/02/24 11:44:10;;;;;;;5.80;2.10;;;11.30;99.90;;;;;;7382170;19;20003;-76
2024/02/24 11:46:39;;;;;;;9.02;1.50;;;11.30;99.90;;;;;;7383779;19;20006;-75
2024/02/24 11:49:10;;;;;;;6.45;2.00;;;11.30;99.90;;;;;;7407801;19;20563;-75
2024/02/24 11:51:39;;;;;;;8.82;2.15;;;11.40;99.90;;;;;;7386536;19;20003;-76
2024/02/24 11:54:08;;;;;;;4.25;1.75;;;11.20;99.90;;;;;;7388504;19;20019;-73
2024/02/24 11:56:38;;;;;;;11.85;2.10;;;11.20;99.90;;;;;;7389345;19;20003;-73
2024/02/24 11:59:06;;;;;;;4.55;1.83;;;11.20;99.90;;;;;;7388585;19;20015;-73
2024/02/24 12:01:37;;;;;;;10.25;1.65;;;11.10;99.90;;;;;;7389326;19;20016;-73
2024/02/24 12:04:05;;;;;;;3.80;1.85;;;11.40;99.90;;;;;;7404880;19;20023;-72
2024/02/24 12:06:37;;;;;;;12.35;2.38;;;11.40;99.90;;;;;;7384883;19;20007;-75
2024/02/24 12:09:06;;;;;;;5.10;1.50;;;11.60;99.90;;;;;;7382566;19;20054;-76
2024/02/24 12:11:34;;;;;;;5.47;1.55;;;11.60;99.90;;;;;;7384796;19;20258;-75
2024/02/24 12:14:03;;;;;;;3.45;1.30;;;11.70;99.90;;;;;;7387153;19;20003;-75
2024/02/24 12:16:33;;;;;;;6.60;1.73;;;11.60;99.90;;;;;;7384866;19;20010;-74
2024/02/24 12:19:04;;;;;;;6.03;1.70;;;11.50;99.90;;;;;;7402768;19;20389;-75
2024/02/24 12:21:32;;;;;;;5.03;1.35;;;11.50;99.90;;;;;;7383905;19;20395;-75
2024/02/24 12:24:06;;;;;;;9.38;1.50;;;11.40;99.90;;;;;;7381976;19;20027;-75
2024/02/24 12:26:34;;;;;;;8.38;1.70;;;11.50;99.90;;;;;;7384904;19;20023;-75
2024/02/24 12:29:06;;;;;;;5.28;1.42;;;11.60;99.90;;;;;;7385488;19;20011;-74
2024/02/24 12:31:34;;;;;;;14.32;1.70;;;11.40;99.90;;;;;;7380792;19;20238;-76
2024/02/24 12:34:03;;;;;;;5.25;1.70;;;11.50;99.90;;;;;;7402178;19;20006;-75
2024/02/24 12:36:35;;;;;;;5.70;1.70;;;11.60;99.90;;;;;;7381305;19;20377;-74
2024/02/24 12:39:06;;;;;;;;;;;11.70;99.90;;;;;;7381251;19;20239;-74
2024/02/24 12:41:35;;;;;;;9.52;1.75;;;11.80;99.90;;;;;;7380909;19;20261;-74
2024/02/24 12:44:06;;;;;;;4.05;1.23;;;11.80;99.90;;;;;;7382652;19;20266;-74
2024/02/24 12:46:37;;;;;;;6.70;1.70;;;11.80;99.90;;;;;;7380942;19;20113;-75
2024/02/24 12:49:05;;;;;;;6.95;1.83;;;11.80;99.90;;;;;;7402014;19;20006;-76
2024/02/24 12:51:34;;;;;;;5.60;1.10;;;11.70;99.90;;;;;;7379425;19;19998;-75
2024/02/24 12:54:06;;;;;;;7.80;1.48;;;11.70;99.90;;;;;;7379817;19;20017;-74
2024/02/24 12:56:34;;;;;;;6.15;1.88;;;11.80;99.90;;;;;;7380598;19;20085;-75
2024/02/24 12:59:03;;;;;;;10.05;1.08;;;11.90;99.90;;;;;;7381288;19;20074;-75
2024/02/24 13:01:32;;;;;;;4.82;1.15;;;11.90;99.90;;;;;;7381311;19;20283;-74
2024/02/24 13:04:00;;;;;;;3.88;0.90;;;12.00;99.90;;;;;;7401752;19;20066;-74
2024/02/24 13:06:30;;;;;;;8.10;1.25;;;12.00;99.90;;;;;;7382845;19;20236;-74
2024/02/24 13:08:59;;;;;;;4.40;1.00;;;12.10;99.90;;;;;;7384442;19;20057;-75
2024/02/24 13:11:30;;;;;;;6.30;1.63;;;12.00;99.90;;;;;;7382241;19;20419;-73
2024/02/24 13:13:59;;;;;;;5.07;1.67;;;12.00;99.90;;;;;;7380296;19;20010;-75
2024/02/24 13:16:29;;;;;;;2.90;1.25;;;12.00;99.90;;;;;;7382239;19;20023;-75
2024/02/24 13:19:00;;;;;;;1.63;1.02;;;12.00;99.90;;;;;;7400430;19;20003;-75